createdAt,value
2023-12-19T00:00:11.621Z,35.95
2023-12-19T00:01:47.550Z,37.10
2023-12-19T00:03:19.494Z,34.17
2023-12-19T00:04:52.201Z,34.22
2023-12-19T00:06:25.309Z,35.95
2023-12-19T00:07:58.008Z,37.80
2023-12-19T00:09:29.773Z,34.25
2023-12-19T00:11:02.444Z,30.08
2023-12-19T00:12:34.223Z,30.80
2023-12-19T00:14:08.201Z,35.22
2023-12-19T00:15:40.271Z,30.60
2023-12-19T00:17:12.968Z,27.63
2023-12-19T00:18:45.026Z,21.90
2023-12-19T00:20:17.952Z,23.23
2023-12-19T00:21:51.136Z,25.70
2023-12-19T00:23:24.009Z,20.35
2023-12-19T00:24:55.827Z,22.80
2023-12-19T00:26:28.674Z,19.33
2023-12-19T00:28:01.526Z,21.20
2023-12-19T00:29:34.244Z,21.55
2023-12-19T00:31:06.101Z,21.90
2023-12-19T00:32:39.029Z,23.83
2023-12-19T00:34:10.819Z,21.25
2023-12-19T00:35:43.677Z,21.50
2023-12-19T00:37:16.869Z,20.83
2023-12-19T00:38:49.652Z,22.17
2023-12-19T00:40:21.502Z,22.35
2023-12-19T00:41:54.615Z,20.40
2023-12-19T00:43:26.348Z,21.95
2023-12-19T00:44:59.018Z,22.58
2023-12-19T00:46:30.754Z,23.02
2023-12-19T00:48:03.564Z,25.95
2023-12-19T00:49:35.531Z,21.48
2023-12-19T00:51:11.341Z,24.45
2023-12-19T00:52:44.695Z,22.50
2023-12-19T00:54:17.621Z,22.70
2023-12-19T00:55:49.470Z,24.85
2023-12-19T00:57:22.161Z,23.08
2023-12-19T00:58:53.978Z,23.40
2023-12-19T01:00:26.784Z,24.85
2023-12-19T01:01:58.653Z,27.17
2023-12-19T01:03:31.441Z,27.60
2023-12-19T01:05:03.484Z,27.00
2023-12-19T01:06:37.855Z,25.40
2023-12-19T01:08:10.943Z,25.65
2023-12-19T01:09:43.731Z,26.63
2023-12-19T01:11:15.603Z,24.38
2023-12-19T01:12:48.719Z,25.38
2023-12-19T01:14:20.507Z,24.70
2023-12-19T01:15:53.632Z,24.08
2023-12-19T01:17:25.440Z,23.50
2023-12-19T01:18:58.309Z,29.30
2023-12-19T01:20:30.357Z,29.77
2023-12-19T01:22:04.092Z,27.67
2023-12-19T01:23:37.177Z,31.98
2023-12-19T01:25:10.077Z,29.42
2023-12-19T01:26:41.871Z,31.75
2023-12-19T01:28:14.848Z,28.38
2023-12-19T01:29:46.658Z,28.20
2023-12-19T01:31:19.485Z,26.67
2023-12-19T01:32:51.385Z,28.63
2023-12-19T01:34:24.231Z,28.58
2023-12-19T01:35:56.644Z,29.25
2023-12-19T01:37:30.373Z,25.67
2023-12-19T01:39:03.562Z,24.48
2023-12-19T01:40:36.301Z,26.38
2023-12-19T01:42:08.164Z,27.17
2023-12-19T01:43:40.861Z,26.90
2023-12-19T01:45:14.608Z,22.83
2023-12-19T01:46:47.565Z,27.05
2023-12-19T01:48:20.610Z,31.40
2023-12-19T01:49:53.643Z,26.88
2023-12-19T01:51:25.472Z,23.83
2023-12-19T01:53:00.909Z,24.85
2023-12-19T01:54:34.582Z,26.23
2023-12-19T01:56:08.235Z,23.48
2023-12-19T01:57:40.203Z,25.98
2023-12-19T01:59:14.494Z,29.73
2023-12-19T02:00:47.449Z,23.63
2023-12-19T02:02:19.311Z,28.13
2023-12-19T02:03:52.119Z,25.13
2023-12-19T02:05:24.076Z,23.98
2023-12-19T02:06:56.890Z,28.55
2023-12-19T02:08:28.983Z,25.48
2023-12-19T02:10:03.368Z,25.08
2023-12-19T02:11:35.216Z,25.27
2023-12-19T02:13:08.486Z,25.92
2023-12-19T02:14:40.924Z,26.42
2023-12-19T02:16:14.370Z,23.60
2023-12-19T02:17:46.217Z,26.20
2023-12-19T02:19:19.032Z,26.65
2023-12-19T02:20:51.239Z,25.65
2023-12-19T02:22:24.149Z,26.45
2023-12-19T02:23:57.258Z,25.77
2023-12-19T02:25:30.002Z,24.27
2023-12-19T02:27:01.781Z,24.13
2023-12-19T02:28:34.474Z,25.95
2023-12-19T02:30:07.739Z,26.65
2023-12-19T02:31:42.668Z,23.20
2023-12-19T02:33:14.566Z,25.08
2023-12-19T02:34:49.532Z,23.13
2023-12-19T02:36:22.307Z,26.23
2023-12-19T02:37:54.043Z,26.25
2023-12-19T02:39:28.111Z,24.08
2023-12-19T02:40:59.880Z,25.85
2023-12-19T02:42:32.614Z,23.95
2023-12-19T02:44:04.724Z,27.73
2023-12-19T02:45:37.606Z,24.23
2023-12-19T02:47:09.343Z,26.92
2023-12-19T02:48:42.103Z,27.98
2023-12-19T02:50:14.009Z,25.77
2023-12-19T02:51:46.727Z,27.33
2023-12-19T02:53:18.515Z,26.58
2023-12-19T02:54:52.580Z,23.30
2023-12-19T02:56:24.483Z,24.55
2023-12-19T02:57:57.174Z,24.48
2023-12-19T02:59:28.978Z,25.52
2023-12-19T03:01:01.912Z,26.00
2023-12-19T03:02:33.645Z,26.90
2023-12-19T03:04:06.665Z,26.77
2023-12-19T03:05:38.524Z,26.83
2023-12-19T03:07:12.112Z,24.67
2023-12-19T03:08:46.084Z,23.23
2023-12-19T03:10:20.099Z,27.38
2023-12-19T03:12:04.298Z,29.08
2023-12-19T03:13:36.970Z,23.13
2023-12-19T03:15:09.612Z,25.92
2023-12-19T03:16:42.308Z,25.35
2023-12-19T03:18:14.088Z,28.95
2023-12-19T03:19:46.975Z,29.02
2023-12-19T03:21:18.807Z,29.85
2023-12-19T03:22:52.493Z,31.60
2023-12-19T03:24:24.618Z,27.45
2023-12-19T03:25:58.777Z,30.33
2023-12-19T03:27:31.033Z,29.48
2023-12-19T03:29:03.805Z,31.25
2023-12-19T03:30:36.512Z,31.83
2023-12-19T03:32:08.959Z,31.17
2023-12-19T03:33:42.156Z,33.45
2023-12-19T03:35:14.874Z,37.63
2023-12-19T03:36:46.704Z,35.33
2023-12-19T03:38:19.449Z,36.05
2023-12-19T03:39:51.244Z,33.28
2023-12-19T03:41:25.307Z,40.05
2023-12-19T03:42:57.101Z,37.05
2023-12-19T03:44:29.815Z,34.90
2023-12-19T03:46:03.837Z,37.58
2023-12-19T03:47:36.683Z,36.67
2023-12-19T03:49:08.726Z,35.88
2023-12-19T03:50:41.500Z,38.80
2023-12-19T03:52:13.230Z,34.30
2023-12-19T03:53:45.918Z,34.70
2023-12-19T03:55:18.473Z,33.95
2023-12-19T03:56:54.308Z,35.40
2023-12-19T03:58:26.031Z,36.35
2023-12-19T03:59:58.805Z,36.97
2023-12-19T04:01:31.363Z,35.95
2023-12-19T04:03:04.451Z,38.72
2023-12-19T04:04:36.311Z,36.15
2023-12-19T04:06:09.201Z,51.42
2023-12-19T04:07:41.581Z,39.25
2023-12-19T04:09:14.483Z,35.88
2023-12-19T04:10:46.212Z,32.10
2023-12-19T04:12:20.232Z,33.42
2023-12-19T04:13:51.944Z,31.92
2023-12-19T04:15:25.065Z,32.63
2023-12-19T04:16:56.908Z,31.92
2023-12-19T04:18:29.669Z,31.65
2023-12-19T04:20:01.581Z,30.48
2023-12-19T04:21:34.352Z,29.58
2023-12-19T04:23:06.112Z,27.48
2023-12-19T04:24:38.806Z,27.42
2023-12-19T04:26:17.632Z,27.63
2023-12-19T04:27:51.697Z,27.85
2023-12-19T04:29:24.476Z,27.70
2023-12-19T04:30:56.302Z,28.50
2023-12-19T04:32:29.096Z,29.65
2023-12-19T04:34:01.095Z,27.00
2023-12-19T04:35:33.917Z,28.88
2023-12-19T04:37:06.741Z,28.30
2023-12-19T04:38:39.895Z,26.80
2023-12-19T04:40:13.861Z,23.77
2023-12-19T04:41:45.631Z,26.48
2023-12-19T04:43:19.692Z,26.08
2023-12-19T04:44:51.477Z,26.65
2023-12-19T04:46:24.220Z,24.50
2023-12-19T04:47:56.159Z,24.77
2023-12-19T04:49:29.231Z,24.17
2023-12-19T04:51:01.486Z,23.83
2023-12-19T04:52:34.182Z,21.92
2023-12-19T04:54:07.689Z,21.40
2023-12-19T04:55:41.856Z,18.52
2023-12-19T04:57:14.878Z,20.23
2023-12-19T04:58:48.020Z,20.58
2023-12-19T05:00:21.210Z,19.00
2023-12-19T05:01:54.038Z,17.42
2023-12-19T05:03:27.462Z,19.05
2023-12-19T05:04:59.666Z,18.08
2023-12-19T05:06:32.365Z,17.80
2023-12-19T05:08:04.772Z,17.58
2023-12-19T05:09:37.460Z,17.90
2023-12-19T05:11:09.172Z,16.13
2023-12-19T05:12:42.196Z,16.35
2023-12-19T05:14:15.430Z,16.25
2023-12-19T05:15:48.118Z,17.23
2023-12-19T05:17:19.863Z,17.25
2023-12-19T05:18:52.569Z,16.67
2023-12-19T05:20:24.511Z,17.27
2023-12-19T05:21:57.413Z,17.05
2023-12-19T05:23:29.175Z,15.98
2023-12-19T05:25:01.861Z,17.77
2023-12-19T05:26:33.704Z,19.27
2023-12-19T05:28:06.792Z,18.75
2023-12-19T05:29:41.211Z,19.05
2023-12-19T05:31:16.017Z,17.65
2023-12-19T05:32:47.848Z,18.95
2023-12-19T05:34:20.707Z,18.50
2023-12-19T05:35:52.561Z,18.42
2023-12-19T05:37:25.258Z,19.50
2023-12-19T05:38:56.976Z,19.27
2023-12-19T05:40:29.705Z,21.33
2023-12-19T05:42:02.661Z,21.38
2023-12-19T05:43:35.375Z,20.73
2023-12-19T05:45:09.979Z,20.65
2023-12-19T05:46:42.647Z,20.27
2023-12-19T05:48:14.469Z,21.08
2023-12-19T05:49:47.305Z,19.80
2023-12-19T05:51:19.720Z,20.75
2023-12-19T05:52:53.186Z,22.33
2023-12-19T05:54:24.987Z,21.65
2023-12-19T05:55:57.740Z,22.27
2023-12-19T05:57:29.515Z,23.70
2023-12-19T05:59:02.256Z,23.08
2023-12-19T06:00:36.506Z,22.20
2023-12-19T06:02:08.285Z,22.83
2023-12-19T06:03:41.446Z,21.70
2023-12-19T06:05:13.384Z,23.02
2023-12-19T06:06:46.246Z,23.27
2023-12-19T06:08:18.289Z,23.83
2023-12-19T06:09:51.026Z,21.52
2023-12-19T06:11:26.830Z,23.58
2023-12-19T06:12:59.808Z,21.85
2023-12-19T06:14:31.618Z,24.10
2023-12-19T06:16:06.425Z,23.73
2023-12-19T06:17:41.375Z,25.02
2023-12-19T06:19:14.172Z,26.55
2023-12-19T06:20:45.941Z,24.90
2023-12-19T06:22:18.667Z,25.92
2023-12-19T06:23:50.442Z,26.63
2023-12-19T06:25:23.260Z,29.50
2023-12-19T06:26:55.985Z,27.42
2023-12-19T06:28:27.737Z,28.65
2023-12-19T06:30:04.148Z,28.20
2023-12-19T06:31:45.853Z,30.90
2023-12-19T06:33:18.721Z,29.75
2023-12-19T06:34:50.565Z,29.95
2023-12-19T06:36:33.282Z,29.80
2023-12-19T06:38:05.108Z,28.95
2023-12-19T06:39:38.380Z,30.10
2023-12-19T06:41:18.013Z,32.63
2023-12-19T06:42:50.758Z,32.85
2023-12-19T06:44:23.093Z,31.13
2023-12-19T06:45:55.782Z,30.67
2023-12-19T06:47:29.163Z,28.63
2023-12-19T06:49:01.974Z,31.92
2023-12-19T06:50:33.768Z,33.67
2023-12-19T06:52:07.383Z,32.53
2023-12-19T06:53:39.956Z,31.92
2023-12-19T06:55:13.366Z,29.35
2023-12-19T06:56:45.245Z,33.60
2023-12-19T06:58:18.031Z,34.95
2023-12-19T06:59:50.486Z,33.30
2023-12-19T07:01:23.420Z,34.08
2023-12-19T07:02:56.556Z,31.77
2023-12-19T07:04:29.614Z,33.60
2023-12-19T07:06:01.729Z,31.05
2023-12-19T07:07:34.483Z,29.98
2023-12-19T07:09:06.220Z,33.92
2023-12-19T07:10:38.904Z,35.22
2023-12-19T07:12:11.119Z,33.88
2023-12-19T07:13:44.125Z,33.42
2023-12-19T07:15:16.161Z,32.08
2023-12-19T07:16:48.865Z,32.92
2023-12-19T07:18:22.005Z,30.83
2023-12-19T07:19:55.512Z,34.03
2023-12-19T07:21:27.661Z,31.88
2023-12-19T07:23:00.833Z,33.97
2023-12-19T07:24:33.379Z,29.88
2023-12-19T07:26:06.345Z,31.42
2023-12-19T07:27:39.399Z,28.70
2023-12-19T07:29:13.219Z,31.70
2023-12-19T07:30:45.586Z,32.38
2023-12-19T07:32:18.316Z,32.42
2023-12-19T07:33:56.031Z,31.00
2023-12-19T07:35:33.402Z,33.00
2023-12-19T07:37:05.771Z,31.50
2023-12-19T07:38:38.475Z,31.40
2023-12-19T07:40:12.086Z,28.58
2023-12-19T07:41:45.010Z,30.90
2023-12-19T07:43:16.767Z,30.23
2023-12-19T07:44:49.473Z,32.38
2023-12-19T07:46:21.358Z,29.27
2023-12-19T07:47:54.303Z,28.75
2023-12-19T07:49:27.420Z,31.42
2023-12-19T07:51:00.225Z,31.75
2023-12-19T07:52:32.934Z,28.33
2023-12-19T07:54:05.073Z,27.10
2023-12-19T07:55:37.749Z,28.65
2023-12-19T07:57:09.516Z,28.88
2023-12-19T07:58:42.211Z,27.23
2023-12-19T08:00:14.978Z,25.45
2023-12-19T08:01:49.717Z,30.52
2023-12-19T08:03:24.152Z,27.35
2023-12-19T08:04:58.284Z,27.35
2023-12-19T08:06:30.137Z,24.75
2023-12-19T08:08:02.912Z,25.67
2023-12-19T08:09:35.659Z,26.15
2023-12-19T08:11:07.996Z,27.88
2023-12-19T08:12:41.595Z,30.70
2023-12-19T08:14:13.475Z,25.05
2023-12-19T08:15:46.176Z,24.08
2023-12-19T08:17:19.859Z,26.33
2023-12-19T08:18:53.096Z,26.20
2023-12-19T08:20:26.385Z,24.27
2023-12-19T08:21:59.371Z,27.38
2023-12-19T08:23:31.214Z,23.58
2023-12-19T08:25:04.321Z,23.55
2023-12-19T08:26:36.760Z,26.52
2023-12-19T08:28:09.618Z,26.08
2023-12-19T08:29:42.288Z,27.38
2023-12-19T08:31:14.131Z,23.15
2023-12-19T08:32:47.070Z,22.52
2023-12-19T08:34:19.578Z,23.17
2023-12-19T08:35:53.736Z,22.40
2023-12-19T08:37:25.543Z,25.40
2023-12-19T08:38:58.261Z,26.55
2023-12-19T08:40:30.002Z,23.83
2023-12-19T08:42:02.743Z,23.00
2023-12-19T08:43:34.478Z,24.02
2023-12-19T08:45:08.443Z,22.88
2023-12-19T08:46:40.176Z,22.65
2023-12-19T08:48:13.398Z,23.85
2023-12-19T08:49:45.404Z,24.15
2023-12-19T08:51:19.728Z,23.15
2023-12-19T08:52:53.392Z,26.48
2023-12-19T08:54:26.122Z,23.00
2023-12-19T08:55:58.390Z,26.30
2023-12-19T08:57:31.413Z,24.65
2023-12-19T08:59:03.324Z,24.77
2023-12-19T09:00:36.572Z,21.63
2023-12-19T09:02:08.416Z,22.98
2023-12-19T09:03:41.184Z,23.92
2023-12-19T09:05:15.266Z,25.35
2023-12-19T09:06:49.017Z,22.17
2023-12-19T09:08:22.324Z,23.70
2023-12-19T09:09:56.992Z,23.33
2023-12-19T09:11:31.914Z,23.40
2023-12-19T09:13:05.256Z,25.02
2023-12-19T09:14:38.141Z,24.67
2023-12-19T09:16:11.273Z,22.83
2023-12-19T09:17:43.136Z,24.25
2023-12-19T09:19:17.303Z,22.73
2023-12-19T09:20:49.080Z,20.77
2023-12-19T09:22:23.087Z,22.88
2023-12-19T09:23:54.930Z,24.42
2023-12-19T09:25:27.612Z,21.90
2023-12-19T09:26:59.380Z,24.38
2023-12-19T09:28:32.217Z,23.60
2023-12-19T09:30:05.372Z,23.67
2023-12-19T09:31:38.241Z,23.30
2023-12-19T09:33:10.076Z,24.77
2023-12-19T09:34:43.312Z,25.38
2023-12-19T09:36:20.836Z,22.98
2023-12-19T09:37:56.400Z,22.90
2023-12-19T09:39:28.163Z,23.20
2023-12-19T09:41:01.367Z,23.60
2023-12-19T09:42:33.307Z,20.45
2023-12-19T09:44:06.435Z,23.60
2023-12-19T09:45:39.293Z,20.73
2023-12-19T09:47:12.762Z,23.15
2023-12-19T09:48:50.236Z,22.45
2023-12-19T09:50:23.606Z,24.25
2023-12-19T09:51:57.772Z,20.63
2023-12-19T09:53:37.970Z,18.80
2023-12-19T09:55:13.900Z,19.10
2023-12-19T09:56:46.454Z,21.63
2023-12-19T09:58:19.739Z,20.02
2023-12-19T09:59:57.118Z,20.33
2023-12-19T10:01:30.605Z,17.83
2023-12-19T10:03:03.791Z,18.65
2023-12-19T10:04:35.558Z,18.45
2023-12-19T10:06:08.530Z,17.83
2023-12-19T10:07:41.162Z,20.70
2023-12-19T10:09:16.538Z,18.40
2023-12-19T10:10:52.997Z,16.77
2023-12-19T10:12:32.996Z,16.75
2023-12-19T10:14:12.272Z,16.30
2023-12-19T10:15:45.011Z,18.58
2023-12-19T10:17:38.486Z,16.55
2023-12-19T10:19:14.408Z,16.80
2023-12-19T10:20:46.233Z,16.88
2023-12-19T10:22:20.968Z,15.50
2023-12-19T10:23:52.729Z,14.82
2023-12-19T10:25:32.946Z,16.10
2023-12-19T10:27:08.956Z,17.70
2023-12-19T10:28:41.415Z,15.48
2023-12-19T10:30:19.101Z,15.88
2023-12-19T10:31:51.073Z,16.23
2023-12-19T10:33:23.839Z,13.77
2023-12-19T10:34:58.163Z,15.63
2023-12-19T10:36:31.584Z,13.95
2023-12-19T10:38:05.511Z,15.38
2023-12-19T10:39:38.129Z,13.80
2023-12-19T10:41:12.191Z,13.27
2023-12-19T10:42:44.069Z,14.55
2023-12-19T10:44:18.631Z,14.60
2023-12-19T10:45:50.464Z,17.20
2023-12-19T10:47:23.408Z,14.23
2023-12-19T10:48:56.508Z,11.98
2023-12-19T10:50:31.261Z,13.18
2023-12-19T10:52:06.787Z,14.88
2023-12-19T10:53:42.088Z,13.98
2023-12-19T10:55:23.740Z,15.43
2023-12-19T10:57:06.382Z,12.70
2023-12-19T10:58:42.787Z,13.10
2023-12-19T11:00:22.542Z,13.70
2023-12-19T11:02:00.607Z,13.93
2023-12-19T11:03:39.700Z,14.45
2023-12-19T11:05:17.063Z,13.98
2023-12-19T11:06:54.230Z,13.60
2023-12-19T11:08:28.728Z,14.93
2023-12-19T11:10:06.762Z,15.02
2023-12-19T11:11:39.229Z,14.75
2023-12-19T11:13:13.869Z,14.00
2023-12-19T11:14:45.646Z,13.68
2023-12-19T11:16:24.131Z,12.93
2023-12-19T11:18:02.862Z,12.63
2023-12-19T11:19:45.787Z,13.27
2023-12-19T11:21:22.570Z,12.27
2023-12-19T11:23:02.000Z,13.63
2023-12-19T11:24:39.663Z,15.32
2023-12-19T11:26:17.091Z,15.15
2023-12-19T11:27:56.406Z,15.25
2023-12-19T11:29:46.611Z,13.25
2023-12-19T11:31:32.520Z,14.40
2023-12-19T11:33:05.494Z,14.65
2023-12-19T11:34:38.272Z,17.58
2023-12-19T11:36:11.856Z,15.73
2023-12-19T11:37:46.734Z,14.90
2023-12-19T11:39:25.537Z,16.65
2023-12-19T11:40:59.410Z,17.92
2023-12-19T11:42:49.920Z,15.48
2023-12-19T11:44:34.600Z,15.00
2023-12-19T11:46:18.204Z,15.27
2023-12-19T11:47:51.471Z,17.50
2023-12-19T11:49:37.567Z,17.63
2023-12-19T11:51:11.469Z,21.65
2023-12-19T11:52:44.150Z,17.30
2023-12-19T11:54:15.922Z,19.27
2023-12-19T11:55:48.719Z,19.67
2023-12-19T11:57:22.816Z,18.40
2023-12-19T11:58:55.544Z,19.80
2023-12-19T12:00:27.672Z,19.45
2023-12-19T12:02:01.814Z,20.98
2023-12-19T12:03:33.639Z,18.05
2023-12-19T12:05:13.362Z,17.55
2023-12-19T12:06:46.400Z,17.98
2023-12-19T12:08:20.094Z,18.90
2023-12-19T12:09:52.840Z,22.33
2023-12-19T12:11:26.397Z,20.17
2023-12-19T12:13:00.828Z,20.73
2023-12-19T12:14:33.801Z,19.80
2023-12-19T12:16:07.052Z,19.10
2023-12-19T12:17:40.599Z,19.75
2023-12-19T12:19:14.828Z,18.38
2023-12-19T12:20:46.706Z,18.95
2023-12-19T12:22:20.305Z,19.67
2023-12-19T12:23:54.275Z,19.90
2023-12-19T12:25:28.354Z,17.98
2023-12-19T12:27:11.792Z,19.02
2023-12-19T12:28:51.568Z,18.10
2023-12-19T12:30:23.662Z,16.85
2023-12-19T12:31:56.494Z,18.10
2023-12-19T12:33:30.089Z,21.48
2023-12-19T12:35:02.890Z,18.75
2023-12-19T12:36:34.842Z,20.23
2023-12-19T12:38:12.718Z,22.83
2023-12-19T12:39:44.853Z,18.52
2023-12-19T12:41:23.346Z,17.42
2023-12-19T12:43:41.221Z,17.20
2023-12-19T12:45:16.710Z,18.27
2023-12-19T12:46:49.431Z,18.25
2023-12-19T12:48:21.491Z,18.05
2023-12-19T12:50:04.070Z,17.58
2023-12-19T12:51:37.418Z,18.35
2023-12-19T12:53:14.720Z,17.95
2023-12-19T12:54:47.458Z,18.25
2023-12-19T12:56:19.893Z,18.70
2023-12-19T12:58:03.060Z,18.08
2023-12-19T12:59:35.759Z,16.45
2023-12-19T13:01:07.856Z,17.52
2023-12-19T13:02:40.586Z,18.50
2023-12-19T13:04:13.173Z,16.30
2023-12-19T13:05:47.225Z,16.58
2023-12-19T13:07:19.988Z,16.08
2023-12-19T13:08:52.909Z,14.32
2023-12-19T13:10:25.976Z,15.27
2023-12-19T13:12:01.717Z,15.85
2023-12-19T13:13:33.458Z,16.00
2023-12-19T13:15:08.886Z,15.32
2023-12-19T13:16:40.667Z,14.10
2023-12-19T13:18:13.395Z,14.70
2023-12-19T13:19:46.208Z,15.30
2023-12-19T13:21:19.347Z,15.35
2023-12-19T13:22:52.627Z,18.42
2023-12-19T13:24:24.385Z,16.73
2023-12-19T13:25:58.627Z,14.05
2023-12-19T13:27:30.407Z,16.02
2023-12-19T13:29:03.696Z,15.88
2023-12-19T13:30:35.562Z,19.08
2023-12-19T13:32:08.814Z,18.60
2023-12-19T13:33:40.563Z,18.45
2023-12-19T13:35:13.368Z,21.65
2023-12-19T13:36:46.734Z,22.25
2023-12-19T13:38:20.863Z,25.27
2023-12-19T13:39:54.265Z,22.30
2023-12-19T13:41:27.037Z,27.42
2023-12-19T13:42:59.579Z,29.95
2023-12-19T13:44:32.325Z,69.50
2023-12-19T13:46:05.603Z,52.40
2023-12-19T13:47:38.905Z,41.25
2023-12-19T13:49:11.979Z,14.27
2023-12-19T13:50:44.322Z,13.07
2023-12-19T13:52:18.327Z,14.18
2023-12-19T13:53:50.107Z,12.90
2023-12-19T13:55:22.971Z,15.18
2023-12-19T13:56:54.899Z,13.32
2023-12-19T13:58:27.610Z,14.18
2023-12-19T14:00:00.580Z,12.57
2023-12-19T14:01:33.736Z,12.80
2023-12-19T14:03:06.435Z,16.38
2023-12-19T14:04:39.212Z,13.25
2023-12-19T14:06:11.066Z,15.05
2023-12-19T14:07:46.746Z,13.15
2023-12-19T14:09:20.410Z,13.25
2023-12-19T14:10:53.229Z,13.98
2023-12-19T14:12:24.976Z,13.55
2023-12-19T14:13:57.775Z,13.38
2023-12-19T14:15:29.718Z,12.50
2023-12-19T14:17:02.646Z,14.13
2023-12-19T14:18:34.566Z,15.40
2023-12-19T14:20:09.422Z,13.50
2023-12-19T14:21:41.381Z,13.48
2023-12-19T14:23:15.506Z,12.88
2023-12-19T14:24:48.643Z,13.75
2023-12-19T14:26:21.818Z,13.15
2023-12-19T14:27:54.074Z,13.63
2023-12-19T14:29:29.007Z,12.02
2023-12-19T14:31:02.614Z,12.85
2023-12-19T14:32:34.643Z,12.77
2023-12-19T14:34:07.645Z,14.57
2023-12-19T14:35:41.132Z,14.13
2023-12-19T14:37:14.566Z,13.02
2023-12-19T14:38:47.679Z,13.40
2023-12-19T14:40:20.483Z,10.70
2023-12-19T14:41:52.212Z,13.70
2023-12-19T14:43:27.745Z,11.43
2023-12-19T14:44:59.976Z,13.63
2023-12-19T14:46:33.730Z,11.85
2023-12-19T14:48:07.239Z,12.38
2023-12-19T14:49:41.858Z,13.45
2023-12-19T14:51:15.435Z,13.10
2023-12-19T14:52:48.146Z,12.90
2023-12-19T14:54:21.211Z,12.40
2023-12-19T14:55:53.896Z,12.23
2023-12-19T14:57:26.311Z,11.68
2023-12-19T14:59:00.441Z,12.85
2023-12-19T15:00:34.195Z,10.20
2023-12-19T15:02:07.983Z,10.80
2023-12-19T15:03:40.014Z,12.85
2023-12-19T15:05:12.762Z,13.10
2023-12-19T15:06:44.580Z,12.95
2023-12-19T15:08:17.718Z,14.60
2023-12-19T15:09:50.798Z,12.25
2023-12-19T15:11:23.524Z,11.98
2023-12-19T15:12:55.271Z,12.30
2023-12-19T15:14:28.220Z,14.13
2023-12-19T15:16:00.040Z,13.23
2023-12-19T15:17:33.143Z,12.60
2023-12-19T15:19:05.143Z,13.25
2023-12-19T15:20:38.010Z,12.77
2023-12-19T15:22:09.889Z,13.73
2023-12-19T15:23:42.785Z,13.23
2023-12-19T15:25:17.352Z,12.95
2023-12-19T15:26:49.190Z,14.10
2023-12-19T15:28:22.076Z,16.80
2023-12-19T15:29:55.749Z,14.50
2023-12-19T15:31:28.549Z,14.48
2023-12-19T15:33:00.485Z,13.60
2023-12-19T15:34:33.446Z,13.85
2023-12-19T15:36:06.738Z,14.65
2023-12-19T15:37:38.482Z,15.38
2023-12-19T15:39:11.674Z,13.23
2023-12-19T15:40:45.498Z,15.13
2023-12-19T15:42:18.173Z,23.38
2023-12-19T15:43:58.008Z,16.40
2023-12-19T15:45:36.872Z,14.80
2023-12-19T15:47:08.617Z,15.75
2023-12-19T15:48:41.404Z,15.95
2023-12-19T15:50:13.360Z,16.70
2023-12-19T15:51:46.153Z,21.13
2023-12-19T15:53:17.894Z,32.40
2023-12-19T15:54:50.717Z,20.85
2023-12-19T15:56:29.188Z,19.08
2023-12-19T15:58:02.091Z,16.63
2023-12-19T15:59:33.858Z,12.98
2023-12-19T16:01:07.660Z,15.90
2023-12-19T16:02:47.872Z,17.27
2023-12-19T16:04:21.805Z,18.00
2023-12-19T16:05:54.160Z,18.08
2023-12-19T16:07:27.199Z,19.08
2023-12-19T16:08:59.170Z,17.55
2023-12-19T16:10:31.857Z,19.80
2023-12-19T16:12:05.832Z,20.83
2023-12-19T16:13:38.503Z,17.23
2023-12-19T16:15:12.421Z,20.00
2023-12-19T16:16:44.321Z,18.35
2023-12-19T16:18:17.194Z,20.08
2023-12-19T16:19:49.019Z,16.25
2023-12-19T16:21:21.959Z,16.40
2023-12-19T16:22:54.729Z,18.90
2023-12-19T16:24:26.448Z,19.65
2023-12-19T16:25:59.338Z,17.02
2023-12-19T16:27:35.952Z,17.55
2023-12-19T16:29:08.685Z,15.35
2023-12-19T16:30:40.486Z,15.43
2023-12-19T16:32:13.218Z,16.73
2023-12-19T16:33:45.306Z,15.73
2023-12-19T16:35:18.617Z,15.48
2023-12-19T16:36:50.457Z,16.90
2023-12-19T16:38:23.523Z,15.63
2023-12-19T16:39:55.533Z,17.65
2023-12-19T16:41:29.319Z,16.15
2023-12-19T16:43:02.591Z,17.52
2023-12-19T16:44:38.986Z,18.27
2023-12-19T16:46:11.930Z,15.32
2023-12-19T16:47:44.718Z,18.23
2023-12-19T16:49:16.932Z,18.60
2023-12-19T16:50:50.054Z,15.95
2023-12-19T16:52:22.083Z,15.43
2023-12-19T16:53:54.822Z,16.83
2023-12-19T16:55:26.554Z,16.30
2023-12-19T16:56:59.241Z,16.63
2023-12-19T16:58:40.570Z,17.95
2023-12-19T17:00:16.464Z,15.35
2023-12-19T17:01:49.669Z,16.30
2023-12-19T17:03:21.901Z,16.65
2023-12-19T17:04:54.613Z,17.13
2023-12-19T17:06:26.447Z,16.05
2023-12-19T17:07:59.359Z,17.00
2023-12-19T17:09:32.327Z,17.45
2023-12-19T17:11:04.376Z,17.25
2023-12-19T17:12:37.458Z,17.55
2023-12-19T17:14:10.613Z,17.40
2023-12-19T17:15:45.953Z,22.92
2023-12-19T17:17:19.382Z,20.45
2023-12-19T17:18:53.274Z,20.10
2023-12-19T17:20:26.068Z,18.65
2023-12-19T17:21:57.945Z,19.75
2023-12-19T17:23:37.224Z,19.80
2023-12-19T17:25:15.551Z,18.40
2023-12-19T17:26:47.685Z,21.58
2023-12-19T17:28:20.432Z,17.95
2023-12-19T17:29:53.564Z,19.15
2023-12-19T17:31:26.458Z,19.52
2023-12-19T17:32:58.433Z,19.52
2023-12-19T17:34:31.227Z,19.98
2023-12-19T17:36:04.129Z,21.50
2023-12-19T17:37:36.866Z,19.23
2023-12-19T17:39:09.587Z,20.63
2023-12-19T17:40:41.436Z,20.52
2023-12-19T17:42:14.411Z,21.05
2023-12-19T17:43:47.079Z,22.13
2023-12-19T17:45:20.362Z,19.73
2023-12-19T17:46:53.018Z,21.38
2023-12-19T17:48:24.832Z,25.88
2023-12-19T17:49:58.193Z,24.98
2023-12-19T17:51:30.398Z,42.47
2023-12-19T17:53:03.233Z,34.05
2023-12-19T17:54:40.340Z,31.67
2023-12-19T17:56:13.042Z,28.45
2023-12-19T17:57:45.066Z,32.22
2023-12-19T17:59:17.842Z,32.60
2023-12-19T18:00:50.960Z,27.83
2023-12-19T18:02:23.711Z,31.27
2023-12-19T18:03:55.439Z,27.67
2023-12-19T18:05:28.336Z,25.60
2023-12-19T18:07:00.218Z,31.10
2023-12-19T18:08:33.926Z,33.80
2023-12-19T18:10:06.456Z,24.92
2023-12-19T18:11:39.145Z,26.75
2023-12-19T18:13:10.919Z,25.52
2023-12-19T18:14:43.610Z,25.15
2023-12-19T18:16:17.622Z,26.73
2023-12-19T18:17:50.450Z,27.55
2023-12-19T18:19:22.324Z,25.33
2023-12-19T18:20:58.066Z,25.52
2023-12-19T18:22:29.914Z,28.08
2023-12-19T18:24:04.146Z,25.58
2023-12-19T18:25:36.783Z,26.70
2023-12-19T18:27:10.672Z,26.88
2023-12-19T18:28:42.599Z,26.30
2023-12-19T18:30:16.345Z,24.75
2023-12-19T18:31:51.186Z,25.52
2023-12-19T18:33:25.819Z,26.30
2023-12-19T18:34:57.794Z,22.80
2023-12-19T18:36:30.571Z,24.15
2023-12-19T18:38:04.113Z,23.80
2023-12-19T18:39:38.031Z,21.92
2023-12-19T18:41:13.021Z,22.00
2023-12-19T18:42:46.044Z,23.17
2023-12-19T18:44:17.936Z,22.38
2023-12-19T18:45:50.832Z,21.83
2023-12-19T18:47:23.981Z,21.23
2023-12-19T18:48:56.705Z,21.60
2023-12-19T18:50:28.474Z,23.48
2023-12-19T18:52:01.410Z,19.50
2023-12-19T18:53:33.222Z,20.30
2023-12-19T18:55:07.389Z,21.15
2023-12-19T18:56:39.172Z,20.67
2023-12-19T18:58:11.935Z,20.83
2023-12-19T18:59:44.477Z,18.35
2023-12-19T19:01:18.790Z,18.85
2023-12-19T19:02:52.440Z,20.77
2023-12-19T19:04:25.502Z,20.40
2023-12-19T19:05:57.424Z,19.08
2023-12-19T19:07:30.148Z,18.52
2023-12-19T19:09:02.086Z,20.02
2023-12-19T19:10:35.098Z,17.88
2023-12-19T19:12:07.858Z,23.15
2023-12-19T19:13:41.056Z,18.15
2023-12-19T19:15:12.917Z,19.15
2023-12-19T19:16:45.589Z,16.75
2023-12-19T19:18:20.681Z,18.23
2023-12-19T19:19:54.157Z,14.48
2023-12-19T19:21:26.001Z,17.85
2023-12-19T19:22:59.122Z,16.00
2023-12-19T19:24:32.360Z,16.98
2023-12-19T19:26:05.397Z,17.50
2023-12-19T19:27:37.141Z,16.83
2023-12-19T19:29:11.553Z,15.45
2023-12-19T19:30:43.753Z,14.70
2023-12-19T19:32:17.044Z,14.10
2023-12-19T19:33:50.216Z,13.63
2023-12-19T19:35:23.795Z,12.32
2023-12-19T19:36:55.582Z,10.98
2023-12-19T19:38:29.126Z,15.02
2023-12-19T19:40:01.188Z,13.65
2023-12-19T19:41:33.913Z,14.20
2023-12-19T19:43:05.700Z,13.00
2023-12-19T19:44:38.432Z,12.88
2023-12-19T19:46:10.297Z,13.75
2023-12-19T19:47:45.321Z,13.40
2023-12-19T19:49:21.341Z,13.02
2023-12-19T19:50:53.168Z,12.05
2023-12-19T19:52:26.807Z,10.45
2023-12-19T19:53:58.642Z,11.73
2023-12-19T19:55:31.369Z,12.00
2023-12-19T19:57:03.945Z,9.27
2023-12-19T19:58:37.556Z,11.80
2023-12-19T20:00:09.875Z,11.57
2023-12-19T20:01:46.901Z,12.00
2023-12-19T20:03:18.704Z,12.68